Bookmark and Share
Track history (hours):
 

Furenas

Last reported at 2014-Apr-16 23:31 UTC. Time now 2014-Apr-17 09:46 UTC.
Position N 51°50' W 008°16'.

Length 137 m; draft 6 m.

Type: Tanker. MMSI: 231734000.

NotesDate/timePositionNaut miles runAvg speedWind from/ knotsBaromVisibWave heightAir tempDewpointWater temp
2014-Apr-16 23:31N 51°50' W 008°16'1 1.3
2014-Apr-16 22:33N 51°49' W 008°16'3 2.8
2014-Apr-16 21:32N 51°46' W 008°16'0 0.0
2014-Apr-16 20:32N 51°46' W 008°16'0 0.0
2014-Apr-16 19:32N 51°46' W 008°16'0 0.0
2014-Apr-16 18:29N 51°46' W 008°16'0 0.0
2014-Apr-16 17:32N 51°46' W 008°16'2 2.5
2014-Apr-16 16:33N 51°45' W 008°12'1111.2
2014-Apr-16 15:33N 51°46' W 007°54'1211.9
2014-Apr-16 14:33N 51°49' W 007°36'1211.9
2014-Apr-16 13:33N 51°52' W 007°17'1211.9
2014-Apr-16 12:34N 51°55' W 006°58'1212.1
2014-Apr-16 11:33N 51°58' W 006°39'5911.1
2014-Apr-16 06:14N 52°46' W 005°43'7911.8
2014-Apr-15 23:33N 54°03' W 005°16'1212.0
2014-Apr-15 22:33N 54°15' W 005°15'1211.9
2014-Apr-15 21:33N 54°27' W 005°15'1212.0
2014-Apr-15 20:33N 54°39' W 005°17'1212.1
2014-Apr-15 19:33N 54°51' W 005°19'1312.7
2014-Apr-15 18:33N 55°04' W 005°20'2611.8
2014-Apr-15 16:21N 55°27' W 004°59'1211.6
2014-Apr-15 15:20N 55°39' W 004°59'912.0
2014-Apr-15 14:33N 55°48' W 004°58'11 5.5
2014-Apr-15 12:34N 55°58' W 004°50'1010.5
2014-Apr-15 11:34N 55°56' W 004°32'5 4.7
2014-Apr-15 10:30N 55°54' W 004°24'0 0.0
2014-Apr-15 09:33N 55°54' W 004°24'0 0.0
2014-Apr-15 08:33N 55°54' W 004°24'0 0.0
2014-Apr-15 07:33N 55°54' W 004°24'0 0.0
2014-Apr-15 06:32N 55°54' W 004°24'0 0.0
2014-Apr-15 05:29N 55°54' W 004°24'0 0.0
2014-Apr-15 03:29N 55°54' W 004°24'0 0.0
2014-Apr-15 02:32N 55°54' W 004°24'0 0.0
2014-Apr-15 01:32N 55°54' W 004°24'0 0.0
2014-Apr-15 00:29N 55°54' W 004°24'0 0.0
2014-Apr-14 23:32N 55°54' W 004°24'0 0.0
2014-Apr-14 22:32N 55°54' W 004°24'0 0.0
2014-Apr-14 21:30N 55°54' W 004°24'0 0.0
2014-Apr-14 19:32N 55°54' W 004°24'0 0.0
2014-Apr-14 18:32N 55°54' W 004°24'0 0.0
2014-Apr-14 17:32N 55°54' W 004°24'0 0.0
2014-Apr-14 16:32N 55°54' W 004°24'0 0.0
2014-Apr-14 15:32N 55°54' W 004°24'0 0.0
2014-Apr-14 14:32N 55°54' W 004°24'0 0.0
2014-Apr-14 13:32N 55°54' W 004°24'0 0.0
2014-Apr-14 11:32N 55°54' W 004°24'0 0.0
2014-Apr-14 10:32N 55°54' W 004°24'3 2.8
2014-Apr-14 09:34N 55°55' W 004°28'8 8.2
2014-Apr-14 08:34N 55°57' W 004°42'8 7.9
2014-Apr-14 07:34N 55°54' W 004°55'1211.8
2014-Apr-14 06:33N 55°42' W 005°00'35 3.4
2014-Apr-13 20:24N 55°14' W 005°36'1315.1
2014-Apr-13 19:33N 55°15' W 005°59'1414.4
2014-Apr-13 18:33N 55°23' W 006°19'1313.4
2014-Apr-13 17:34N 55°32' W 006°38'1312.5
2014-Apr-13 16:34N 55°39' W 006°55'1210.3
2014-Apr-13 15:26N 55°50' W 007°03'13610.5
2014-Apr-13 02:29N 58°03' W 006°11'1112.0
2014-Apr-13 01:33N 58°12' W 005°57'1211.7
2014-Apr-13 00:33N 58°21' W 005°43'48 5.2
2014-Apr-12 15:14N 58°42' W 004°21'3 4.9
2014-Apr-12 14:32N 58°42' W 004°14'6 6.2
2014-Apr-12 13:33N 58°43' W 004°02'7 7.0
2014-Apr-12 12:33N 58°43' W 003°49'9 8.3
2014-Apr-12 11:31N 58°43' W 003°32'8 8.6
2014-Apr-12 10:33N 58°43' W 003°16'1010.1
2014-Apr-12 09:33N 58°43' W 002°57'  
2014-Apr-09 19:05N 58°16' E 011°06'6 4.0
2014-Apr-09 17:32N 58°11' E 010°59'2411.9
2014-Apr-09 15:33N 57°57' E 010°23'7712.0
2014-Apr-09 09:08N 57°10' E 008°28'812.7
2014-Apr-09 08:32N 57°06' E 008°17'5412.0
2014-Apr-09 04:04N 56°20' E 007°27'18611.9
2014-Apr-08 12:25N 53°36' E 004°50'1112.9
2014-Apr-08 11:33N 53°26' E 004°44'11511.3
2014-Apr-08 01:21N 51°45' E 003°12'1011.9
2014-Apr-08 00:28N 51°37' E 003°22'1313.7
2014-Apr-07 23:33N 51°27' E 003°34'9 8.6
2014-Apr-07 22:28N 51°21' E 003°46'0 0.0
2014-Apr-07 21:16N 51°21' E 003°46'  

Dump ship's entire track history

sailing weather and tide predictions

Furenas — OZ2085 — position and weather